Observations de surface / France / LFLC

Québec | Canada | États-Unis | France | UK | Europe | Ailleurs

Affichage: Infos & localisation pour LFLC | Aide pour décoder les METARs

LFLC CLERMONT/AULNAT -- FR
Raw surface observations for station LFLC
LFLC 211700Z AUTO 00000KT CAVOK 01/M02 Q1023 NOSIG=
LFLC 211630Z AUTO 06003KT CAVOK 03/M02 Q1023 NOSIG=
LFLC 211600Z AUTO 03002KT CAVOK 05/M02 Q1023 NOSIG=
LFLC 211530Z AUTO 05004KT CAVOK 06/M02 Q1023 NOSIG=
LFLC 211500Z AUTO VRB02KT CAVOK 07/M03 Q1023 NOSIG=
LFLC 211430Z AUTO VRB02KT 9999 FEW010 06/M03 Q1023 NOSIG=
LFLC 211400Z AUTO VRB02KT CAVOK 07/M03 Q1023 NOSIG=
LFLC 211330Z AUTO VRB02KT CAVOK 06/M04 Q1024 NOSIG=
LFLC 211300Z AUTO VRB01KT CAVOK 06/M04 Q1024 NOSIG=
LFLC 211230Z AUTO VRB01KT CAVOK 04/M04 Q1024 NOSIG=
LFLC 211200Z AUTO VRB02KT CAVOK 04/M04 Q1025 NOSIG=
LFLC 211130Z AUTO 19006KT CAVOK 03/M04 Q1025 NOSIG=
LFLC 211100Z AUTO 22005KT 180V270 CAVOK 02/M04 Q1025 NOSIG=
LFLC 211030Z AUTO 00000KT CAVOK 01/M05 Q1026 NOSIG=
LFLC 211000Z AUTO VRB02KT CAVOK 01/M05 Q1025 NOSIG=
LFLC 210930Z AUTO VRB02KT CAVOK M00/M05 Q1025 NOSIG=
LFLC 210900Z AUTO VRB04KT CAVOK M02/M06 Q1026 NOSIG=
LFLC 210830Z AUTO VRB04KT CAVOK M03/M06 Q1026 NOSIG=
LFLC 210800Z AUTO VRB03KT CAVOK M04/M07 Q1025 NOSIG=
LFLC 210730Z AUTO VRB03KT CAVOK M04/M07 Q1025 NOSIG=
LFLC 210700Z AUTO VRB02KT CAVOK M04/M07 Q1025 NOSIG=
LFLC 210630Z AUTO VRB04KT CAVOK M03/M07 Q1025 NOSIG=
LFLC 210600Z AUTO VRB01KT CAVOK M03/M07 Q1025 TEMPO 3000 BR=
LFLC 210530Z AUTO 02004KT CAVOK M03/M07 Q1025 TEMPO 3000 BR=
LFLC 210500Z AUTO VRB03KT CAVOK M03/M07 Q1025 TEMPO 3000 BR=
LFLC 210430Z AUTO VRB02KT CAVOK M04/M07 Q1025 TEMPO 3000 BR=
LFLC 210400Z AUTO 04003KT 320V060 CAVOK M04/M07 Q1025 TEMPO 3000 BR=
LFLC 210330Z AUTO 00000KT CAVOK M04/M07 Q1026 TEMPO 3000 BR=
LFLC 210300Z AUTO VRB03KT CAVOK M03/M07 Q1026 TEMPO 3000 BR=
LFLC 210230Z AUTO 04001KT CAVOK M03/M07 Q1026 TEMPO 3000 BR=
LFLC 210200Z AUTO VRB02KT CAVOK M03/M07 Q1026 TEMPO 3000 BR=
LFLC 210130Z AUTO VRB03KT CAVOK M04/M08 Q1026 TEMPO 3000 BR=
LFLC 210100Z AUTO 36003KT 350V080 8000 NSC M03/M07 Q1026 TEMPO 3000 BR=
LFLC 210030Z AUTO 02003KT 9000 NSC M04/M07 Q1026 TEMPO 3000 BR=
LFLC 210000Z AUTO 00000KT CAVOK M04/M07 Q1026 TEMPO 3000 BR=
LFLC 202330Z AUTO VRB03KT 9000 NSC M04/M07 Q1026 TEMPO 3000 BR=
LFLC 202300Z AUTO 00000KT 7000 NSC M04/M07 Q1026 TEMPO 3000 BR=
LFLC 202230Z AUTO VRB01KT 9000 NSC M05/M08 Q1026 TEMPO 3000 BR=
LFLC 202200Z AUTO VRB01KT 8000 NSC M04/M06 Q1027 TEMPO 3000 BR=
LFLC 202130Z AUTO VRB02KT 7000 NSC M04/M06 Q1027 TEMPO 3000 BR=
LFLC 202100Z AUTO 00000KT 8000 NSC M04/M06 Q1027 TEMPO 3000 BR=
LFLC 202030Z AUTO 00000KT 8000 NSC M04/M06 Q1027 TEMPO 3000 BR=
LFLC 202000Z AUTO 00000KT 8000 NSC M03/M06 Q1026 TEMPO 3000 BCFG=
LFLC 201930Z AUTO 29001KT 9000 NSC M02/M05 Q1026 TEMPO 3000 BCFG=
LFLC 201900Z AUTO 28001KT 9000 NSC M02/M05 Q1026 TEMPO 3000 BCFG=
LFLC 201830Z AUTO 00000KT 9000 NSC M01/M04 Q1026 TEMPO 3000 BCFG=
LFLC 201800Z AUTO 00000KT 8000 NSC M01/M05 Q1026 TEMPO 3000 BCFG=
LFLC 201730Z AUTO 00000KT CAVOK M01/M05 Q1026 TEMPO 3000 BCFG=
LFLC 201700Z AUTO 10002KT CAVOK 01/M04 Q1026 TEMPO 3000 BCFG=